| time (UTC) | temp F | wind direction | speed MPH | gust MPH | rain 1hr in | rain 24hr in | rain mn in | humidity % | barometer mb |
| 20260508101309 | 83 | 0.0 | 0.0 | 0.00 | 0.00 | 0.00 | 32 | 933.1 | |
| 20260508100808 | 82 | 0.0 | 0.0 | 0.00 | 0.00 | 0.00 | 32 | 933.2 | |
| 20260508100308 | 82 | 0.0 | 0.0 | 0.00 | 0.00 | 0.00 | 32 | 933.1 | |
| 20260508095808 | 81 | 0.0 | 0.0 | 0.00 | 0.00 | 0.00 | 32 | 932.9 | |
| 20260508095308 | 81 | 0.0 | 0.0 | 0.00 | 0.00 | 0.00 | 32 | 933.0 | |
| 20260508094304 | 81 | 0.0 | 0.0 | 0.00 | 0.00 | 0.00 | 32 | 933.1 | |
| 20260508093305 | 82 | 0.0 | 0.0 | 0.00 | 0.00 | 0.00 | 32 | 933.0 | |
| 20260508092804 | 82 | 0.0 | 0.0 | 0.00 | 0.00 | 0.00 | 32 | 933.0 | |
| 20260508092312 | 82 | 0.0 | 0.0 | 0.00 | 0.00 | 0.00 | 32 | 932.8 | |
| 20260508091804 | 82 | 0.0 | 0.0 | 0.00 | 0.00 | 0.00 | 32 | 933.0 | |
| 20260508091249 | 82 | 0.0 | 0.0 | 0.00 | 0.00 | 0.00 | 32 | 932.6 | |
| 20260508090749 | 82 | 0.0 | 0.0 | 0.00 | 0.00 | 0.00 | 32 | 932.7 | |
| 20260508085749 | 83 | 0.0 | 0.0 | 0.00 | 0.00 | 0.00 | 31 | 932.6 | |
| 20260508084749 | 82 | 0.0 | 0.0 | 0.00 | 0.00 | 0.00 | 32 | 932.3 | |
| 20260508084249 | 83 | 0.0 | 0.0 | 0.00 | 0.00 | 0.00 | 31 | 932.6 | |
| 20260508083235 | 81 | 0.0 | 0.0 | 0.00 | 0.00 | 0.00 | 32 | 933.3 | |
| 20260508082735 | 82 | 0.0 | 0.0 | 0.00 | 0.00 | 0.00 | 32 | 933.1 | |
| 20260508082221 | 82 | 0.0 | 0.0 | 0.00 | 0.00 | 0.00 | 31 | 932.9 | |
| 20260508081721 | 81 | 0.0 | 0.0 | 0.00 | 0.00 | 0.00 | 32 | 932.8 | |
| 20260508081221 | 81 | 0.0 | 0.0 | 0.00 | 0.00 | 0.00 | 32 | 932.7 | |
| 20260508080721 | 82 | 0.0 | 0.0 | 0.00 | 0.00 | 0.00 | 31 | 933.3 | |
| 20260508075205 | 82 | 0.0 | 0.0 | 0.00 | 0.00 | 0.00 | 31 | 935.3 | |
| 20260508073202 | 83 | 0.0 | 0.0 | 0.00 | 0.00 | 0.00 | 31 | 927.9 | |
| 20260508072200 | 85 | 0.0 | 0.0 | 0.00 | 0.00 | 0.00 | 31 | 928.8 | |
| 20260508063158 | 89 | 0.0 | 0.0 | 0.00 | 0.00 | 0.00 | 31 | 920.5 | |
| 20260508033953 | 83 | 0.0 | 0.0 | 0.00 | 0.00 | 0.00 | 38 | 1004.9 | |
| 20260508033453 | 82 | 0.0 | 0.0 | 0.00 | 0.00 | 0.00 | 40 | 1004.7 |